createdAt,value
2018-06-04T00:00:07.995Z,21.09
2018-06-04T00:00:48.598Z,21.03
2018-06-04T00:01:29.102Z,21.12
2018-06-04T00:02:09.659Z,21.09
2018-06-04T00:02:50.211Z,21.14
2018-06-04T00:03:30.828Z,21.12
2018-06-04T00:04:11.398Z,21.11
2018-06-04T00:04:51.977Z,21.07
2018-06-04T00:05:32.565Z,21.11
2018-06-04T00:06:13.178Z,21.11
2018-06-04T00:06:53.743Z,21.14
2018-06-04T00:07:34.308Z,21.09
2018-06-04T00:08:14.880Z,21.07
2018-06-04T00:08:55.459Z,21.09
2018-06-04T00:09:36.025Z,21
2018-06-04T00:10:16.580Z,21
2018-06-04T00:10:57.126Z,21.05
2018-06-04T00:11:37.686Z,21.09
2018-06-04T00:12:18.232Z,21.07
2018-06-04T00:12:58.786Z,21.03
2018-06-04T00:13:39.360Z,21.11
2018-06-04T00:14:19.896Z,21
2018-06-04T00:15:00.467Z,21.03
2018-06-04T00:15:41.055Z,21
2018-06-04T00:16:21.651Z,21.02
2018-06-04T00:17:02.219Z,21.06
2018-06-04T00:17:42.777Z,21.06
2018-06-04T00:18:23.305Z,21
2018-06-04T00:19:03.945Z,21
2018-06-04T00:19:44.402Z,21.05
2018-06-04T00:20:24.949Z,21
2018-06-04T00:21:05.495Z,21.03
2018-06-04T00:21:46.029Z,21.03
2018-06-04T00:22:26.599Z,21.07
2018-06-04T00:23:07.142Z,21.03
2018-06-04T00:23:47.699Z,21.06
2018-06-04T00:24:28.261Z,21.05
2018-06-04T00:25:08.833Z,21.02
2018-06-04T00:25:49.385Z,21.05
2018-06-04T00:26:30.044Z,21.12
2018-06-04T00:27:10.620Z,21.02
2018-06-04T00:27:51.168Z,21.03
2018-06-04T00:28:31.745Z,20.97
2018-06-04T00:29:12.335Z,21.07
2018-06-04T00:29:52.901Z,21.06
2018-06-04T00:30:33.524Z,21.06
2018-06-04T00:31:14.050Z,21.07
2018-06-04T00:31:54.608Z,20.97
2018-06-04T00:32:35.178Z,21.11
2018-06-04T00:33:15.728Z,21.05
2018-06-04T00:33:56.323Z,20.93
2018-06-04T00:34:36.899Z,20.93
2018-06-04T00:35:17.461Z,21.03
2018-06-04T00:35:58.072Z,21.02
2018-06-04T00:36:38.659Z,20.93
2018-06-04T00:37:19.198Z,20.96
2018-06-04T00:37:59.775Z,20.87
2018-06-04T00:38:40.334Z,20.92
2018-06-04T00:39:20.879Z,20.96
2018-06-04T00:40:01.422Z,20.88
2018-06-04T00:40:41.974Z,20.88
2018-06-04T00:41:22.536Z,20.87
2018-06-04T00:42:03.839Z,20.95
2018-06-04T00:42:44.402Z,20.96
2018-06-04T00:43:24.995Z,20.96
2018-06-04T00:44:05.559Z,20.85
2018-06-04T00:44:46.154Z,20.9
2018-06-04T00:45:26.703Z,20.95
2018-06-04T00:46:07.280Z,20.9
2018-06-04T00:46:47.879Z,20.9
2018-06-04T00:47:28.432Z,20.88
2018-06-04T00:48:09.031Z,20.96
2018-06-04T00:48:49.670Z,20.97
2018-06-04T00:49:30.251Z,20.99
2018-06-04T00:50:10.815Z,20.95
2018-06-04T00:50:51.369Z,20.96
2018-06-04T00:51:31.967Z,21
2018-06-04T00:52:12.557Z,20.88
2018-06-04T00:52:53.115Z,20.87
2018-06-04T00:53:33.673Z,20.96
2018-06-04T00:54:14.264Z,20.93
2018-06-04T00:54:54.796Z,20.95
2018-06-04T00:55:35.341Z,20.92
2018-06-04T00:56:15.938Z,20.92
2018-06-04T00:56:56.474Z,21
2018-06-04T00:57:37.055Z,20.96
2018-06-04T00:58:17.741Z,20.92
2018-06-04T00:58:58.270Z,20.93
2018-06-04T00:59:38.827Z,20.9
2018-06-04T01:00:19.379Z,20.95
2018-06-04T01:01:00.005Z,20.8
2018-06-04T01:01:40.585Z,20.9
2018-06-04T01:02:21.127Z,20.95
2018-06-04T01:03:01.681Z,20.92
2018-06-04T01:03:42.232Z,20.87
2018-06-04T01:04:22.800Z,20.88
2018-06-04T01:05:03.343Z,20.85
2018-06-04T01:05:43.933Z,20.87
2018-06-04T01:06:24.483Z,20.82
2018-06-04T01:07:05.041Z,20.81
2018-06-04T01:07:45.620Z,20.84
2018-06-04T01:08:26.184Z,20.88
2018-06-04T01:09:06.749Z,20.84
2018-06-04T01:09:47.318Z,20.82
2018-06-04T01:10:27.916Z,20.88
2018-06-04T01:11:08.475Z,20.85
2018-06-04T01:11:49.050Z,20.85
2018-06-04T01:12:29.650Z,20.96
2018-06-04T01:13:10.240Z,20.84
2018-06-04T01:13:50.798Z,20.82
2018-06-04T01:14:31.380Z,20.85
2018-06-04T01:15:12.026Z,20.85
2018-06-04T01:15:52.582Z,20.78
2018-06-04T01:16:33.164Z,20.78
2018-06-04T01:17:13.730Z,20.87
2018-06-04T01:17:54.298Z,20.8
2018-06-04T01:18:34.858Z,20.74
2018-06-04T01:19:15.428Z,20.8
2018-06-04T01:19:56.043Z,20.84
2018-06-04T01:20:36.621Z,20.82
2018-06-04T01:21:17.168Z,20.75
2018-06-04T01:21:57.815Z,20.87
2018-06-04T01:22:38.392Z,20.84
2018-06-04T01:23:18.968Z,20.72
2018-06-04T01:23:59.541Z,20.72
2018-06-04T01:24:40.101Z,20.69
2018-06-04T01:25:20.664Z,20.74
2018-06-04T01:26:01.215Z,20.74
2018-06-04T01:26:41.770Z,20.77
2018-06-04T01:27:22.318Z,20.8
2018-06-04T01:28:02.876Z,20.69
2018-06-04T01:28:43.453Z,20.75
2018-06-04T01:29:24.038Z,20.75
2018-06-04T01:30:04.607Z,20.72
2018-06-04T01:30:45.163Z,20.67
2018-06-04T01:31:25.729Z,20.66
2018-06-04T01:32:06.299Z,20.66
2018-06-04T01:32:46.880Z,20.66
2018-06-04T01:33:27.456Z,20.74
2018-06-04T01:34:08.056Z,20.72
2018-06-04T01:34:48.612Z,20.7
2018-06-04T01:35:29.190Z,20.72
2018-06-04T01:36:09.761Z,20.7
2018-06-04T01:36:50.431Z,20.7
2018-06-04T01:37:30.992Z,20.66
2018-06-04T01:38:11.538Z,20.69
2018-06-04T01:38:52.124Z,20.67
2018-06-04T01:39:32.692Z,20.7
2018-06-04T01:40:13.237Z,20.66
2018-06-04T01:40:53.795Z,20.65
2018-06-04T01:41:34.375Z,20.67
2018-06-04T01:42:14.914Z,20.66
2018-06-04T01:42:55.477Z,20.63
2018-06-04T01:43:36.144Z,20.65
2018-06-04T01:44:16.693Z,20.75
2018-06-04T01:44:57.246Z,20.65
2018-06-04T01:45:37.833Z,20.65
2018-06-04T01:46:18.414Z,20.65
2018-06-04T01:46:58.995Z,20.66
2018-06-04T01:47:39.547Z,20.67
2018-06-04T01:48:20.104Z,20.55
2018-06-04T01:49:00.660Z,20.6
2018-06-04T01:49:41.236Z,20.56
2018-06-04T01:50:21.815Z,20.62
2018-06-04T01:51:02.393Z,20.59
2018-06-04T01:51:42.955Z,20.58
2018-06-04T01:52:23.532Z,20.58
2018-06-04T01:53:04.087Z,20.51
2018-06-04T01:53:44.612Z,20.58
2018-06-04T01:54:25.207Z,20.5
2018-06-04T01:55:05.794Z,20.5
2018-06-04T01:55:46.354Z,20.5
2018-06-04T01:56:26.912Z,20.44
2018-06-04T01:57:07.473Z,20.4
2018-06-04T01:57:48.056Z,20.51
2018-06-04T01:58:28.669Z,20.5
2018-06-04T01:59:09.319Z,20.5
2018-06-04T01:59:49.869Z,20.36
2018-06-04T02:00:30.426Z,20.48
2018-06-04T02:01:10.982Z,20.41
2018-06-04T02:01:51.555Z,20.4
2018-06-04T02:02:32.108Z,20.36
2018-06-04T02:03:12.726Z,20.32
2018-06-04T02:03:53.262Z,20.39
2018-06-04T02:04:33.822Z,20.39
2018-06-04T02:05:14.400Z,20.4
2018-06-04T02:05:54.928Z,20.36
2018-06-04T02:06:35.526Z,20.39
2018-06-04T02:07:16.119Z,20.28
2018-06-04T02:07:56.677Z,20.41
2018-06-04T02:08:37.225Z,20.28
2018-06-04T02:09:17.782Z,20.36
2018-06-04T02:09:58.351Z,20.37
2018-06-04T02:10:38.904Z,20.28
2018-06-04T02:11:19.465Z,20.4
2018-06-04T02:12:00.043Z,20.36
2018-06-04T02:12:40.596Z,20.37
2018-06-04T02:13:21.190Z,20.29
2018-06-04T02:14:01.738Z,20.36
2018-06-04T02:14:42.287Z,20.29
2018-06-04T02:15:22.838Z,20.28
2018-06-04T02:16:03.401Z,20.29
2018-06-04T02:16:43.970Z,20.37
2018-06-04T02:17:24.501Z,20.28
2018-06-04T02:18:05.045Z,20.36
2018-06-04T02:18:45.600Z,20.28
2018-06-04T02:19:26.153Z,20.32
2018-06-04T02:20:06.738Z,20.28
2018-06-04T02:20:47.251Z,20.29
2018-06-04T02:21:27.806Z,20.31
2018-06-04T02:22:08.429Z,20.28
2018-06-04T02:22:48.986Z,20.34
2018-06-04T02:23:29.552Z,20.18
2018-06-04T02:24:10.100Z,20.26
2018-06-04T02:24:50.671Z,20.31
2018-06-04T02:25:31.293Z,20.26
2018-06-04T02:26:11.863Z,20.34
2018-06-04T02:26:52.409Z,20.24
2018-06-04T02:27:32.966Z,20.18
2018-06-04T02:28:13.566Z,20.24
2018-06-04T02:28:54.164Z,20.29
2018-06-04T02:29:34.691Z,20.29
2018-06-04T02:30:15.284Z,20.28
2018-06-04T02:30:55.819Z,20.31
2018-06-04T02:31:36.369Z,20.28
2018-06-04T02:32:16.947Z,20.22
2018-06-04T02:32:57.538Z,20.24
2018-06-04T02:33:38.102Z,20.32
2018-06-04T02:34:18.672Z,20.22
2018-06-04T02:34:59.225Z,20.26
2018-06-04T02:35:39.781Z,20.14
2018-06-04T02:36:20.354Z,20.24
2018-06-04T02:37:00.906Z,20.16
2018-06-04T02:37:41.510Z,20.21
2018-06-04T02:38:22.072Z,20.19
2018-06-04T02:39:02.614Z,20.22
2018-06-04T02:39:43.171Z,20.19
2018-06-04T02:40:23.724Z,20.13
2018-06-04T02:41:04.274Z,20.16
2018-06-04T02:41:44.830Z,20.18
2018-06-04T02:42:25.401Z,20.21
2018-06-04T02:43:05.960Z,20.18
2018-06-04T02:43:46.517Z,20.18
2018-06-04T02:44:27.114Z,20.21
2018-06-04T02:45:07.686Z,20.13
2018-06-04T02:45:48.272Z,20.22
2018-06-04T02:46:28.874Z,20.07
2018-06-04T02:47:09.436Z,20.21
2018-06-04T02:47:50.019Z,20.21
2018-06-04T02:48:30.571Z,20.21
2018-06-04T02:49:11.124Z,20.18
2018-06-04T02:49:51.776Z,20.14
2018-06-04T02:50:32.282Z,20.1
2018-06-04T02:51:12.864Z,20.19
2018-06-04T02:51:53.395Z,20.21
2018-06-04T02:52:33.951Z,20.13
2018-06-04T02:53:14.501Z,20.18
2018-06-04T02:53:55.081Z,20.19
2018-06-04T02:54:35.673Z,20.13
2018-06-04T02:55:16.237Z,20.21
2018-06-04T02:55:56.793Z,20.16
2018-06-04T02:56:37.352Z,20.22
2018-06-04T02:57:17.901Z,20.24
2018-06-04T02:57:58.510Z,20.13
2018-06-04T02:58:39.091Z,20.14
2018-06-04T02:59:19.660Z,20.1
2018-06-04T03:00:00.253Z,20.18
2018-06-04T03:00:40.808Z,20.14
2018-06-04T03:01:21.395Z,20.25
2018-06-04T03:02:01.965Z,20.22
2018-06-04T03:02:42.522Z,20.32
2018-06-04T03:03:23.072Z,20.13
2018-06-04T03:04:03.679Z,20.16
2018-06-04T03:04:44.251Z,20.22
2018-06-04T03:05:24.824Z,20.19
2018-06-04T03:06:05.351Z,20.31
2018-06-04T03:06:45.913Z,20.29
2018-06-04T03:07:26.468Z,20.18
2018-06-04T03:08:07.046Z,20.21
2018-06-04T03:08:47.655Z,20.29
2018-06-04T03:09:28.214Z,20.28
2018-06-04T03:10:08.774Z,20.16
2018-06-04T03:10:49.330Z,20.32
2018-06-04T03:11:29.883Z,20.21
2018-06-04T03:12:10.476Z,20.18
2018-06-04T03:12:51.086Z,20.18
2018-06-04T03:13:31.647Z,20.26
2018-06-04T03:14:12.205Z,20.1
2018-06-04T03:14:52.761Z,20.25
2018-06-04T03:15:33.339Z,20.21
2018-06-04T03:16:13.919Z,20.16
2018-06-04T03:16:54.479Z,20.14
2018-06-04T03:17:35.040Z,20.1
2018-06-04T03:18:15.598Z,20.18
2018-06-04T03:18:56.176Z,20.16
2018-06-04T03:19:36.780Z,20.18
2018-06-04T03:20:17.343Z,20.22
2018-06-04T03:20:57.965Z,20.22
2018-06-04T03:21:38.527Z,20.14
2018-06-04T03:22:19.084Z,20.19
2018-06-04T03:22:59.643Z,20.19
2018-06-04T03:23:40.185Z,20.1
2018-06-04T03:24:20.733Z,20.14
2018-06-04T03:25:01.304Z,20.16
2018-06-04T03:25:41.897Z,20.14
2018-06-04T03:26:22.481Z,20.24
2018-06-04T03:27:03.054Z,20.11
2018-06-04T03:27:43.602Z,20.18
2018-06-04T03:28:24.173Z,20.14
2018-06-04T03:29:04.706Z,20.13
2018-06-04T03:29:45.281Z,20.1
2018-06-04T03:30:25.839Z,20.1
2018-06-04T03:31:06.413Z,20.22
2018-06-04T03:31:46.995Z,20.18
2018-06-04T03:32:27.540Z,20.34
2018-06-04T03:33:08.109Z,20.31
2018-06-04T03:33:48.661Z,20.36
2018-06-04T03:34:29.238Z,20.41
2018-06-04T03:35:09.819Z,20.44
2018-06-04T03:35:50.406Z,20.34
2018-06-04T03:36:30.996Z,20.37
2018-06-04T03:37:11.551Z,20.48
2018-06-04T03:37:52.121Z,20.51
2018-06-04T03:38:32.701Z,20.56
2018-06-04T03:39:13.247Z,20.63
2018-06-04T03:39:53.818Z,20.67
2018-06-04T03:40:34.406Z,20.66
2018-06-04T03:41:14.956Z,20.67
2018-06-04T03:41:55.524Z,20.63
2018-06-04T03:42:36.111Z,20.72
2018-06-04T03:43:16.685Z,20.72
2018-06-04T03:43:57.239Z,20.75
2018-06-04T03:44:37.789Z,20.78
2018-06-04T03:45:18.319Z,20.77
2018-06-04T03:45:58.897Z,20.81
2018-06-04T03:46:39.477Z,20.8
2018-06-04T03:47:20.024Z,20.72
2018-06-04T03:48:00.572Z,20.82
2018-06-04T03:48:41.148Z,20.82
2018-06-04T03:49:21.700Z,20.78
2018-06-04T03:50:02.281Z,20.78
2018-06-04T03:50:42.789Z,20.84
2018-06-04T03:51:23.644Z,20.82
2018-06-04T03:52:04.307Z,20.82
2018-06-04T03:52:44.778Z,20.82
2018-06-04T03:53:25.380Z,20.82
2018-06-04T03:54:05.958Z,20.81
2018-06-04T03:54:46.520Z,20.82
2018-06-04T03:55:27.083Z,20.88
2018-06-04T03:56:07.656Z,20.84
2018-06-04T03:56:48.188Z,20.8
2018-06-04T03:57:28.750Z,20.96
2018-06-04T03:58:10.271Z,20.87
2018-06-04T03:58:50.843Z,20.88
2018-06-04T03:59:31.418Z,20.93
2018-06-04T04:00:11.978Z,20.97
2018-06-04T04:00:52.548Z,20.97
2018-06-04T04:01:33.152Z,20.87
2018-06-04T04:02:13.706Z,20.96
2018-06-04T04:02:54.284Z,20.95
2018-06-04T04:03:34.828Z,20.87
2018-06-04T04:04:15.377Z,20.93
2018-06-04T04:04:55.951Z,20.99
2018-06-04T04:05:36.547Z,20.93
2018-06-04T04:06:17.112Z,20.99
2018-06-04T04:06:57.681Z,20.93
2018-06-04T04:07:38.237Z,20.96
2018-06-04T04:08:18.807Z,21.02
2018-06-04T04:08:59.342Z,20.99
2018-06-04T04:09:39.911Z,21
2018-06-04T04:10:20.526Z,21.02
2018-06-04T04:11:01.086Z,21.02
2018-06-04T04:11:41.642Z,21.02
2018-06-04T04:12:22.174Z,21.07
2018-06-04T04:13:02.736Z,21.03
2018-06-04T04:13:43.295Z,21.03
2018-06-04T04:14:23.864Z,20.97
2018-06-04T04:15:04.455Z,21.02
2018-06-04T04:15:45.038Z,21.09
2018-06-04T04:16:25.599Z,21.07
2018-06-04T04:17:06.188Z,21
2018-06-04T04:17:46.790Z,21.05
2018-06-04T04:18:27.351Z,21.03
2018-06-04T04:19:07.890Z,21
2018-06-04T04:19:48.449Z,21.07
2018-06-04T04:20:29.016Z,21.07
2018-06-04T04:21:09.561Z,21.09
2018-06-04T04:21:50.139Z,21
2018-06-04T04:22:30.688Z,21.02
2018-06-04T04:23:11.344Z,21.06
2018-06-04T04:23:51.916Z,21.11
2018-06-04T04:24:32.493Z,21.09
2018-06-04T04:25:13.064Z,21.15
2018-06-04T04:25:53.608Z,21.17
2018-06-04T04:26:34.175Z,21.14
2018-06-04T04:27:14.751Z,21.09
2018-06-04T04:27:55.368Z,21.09
2018-06-04T04:28:35.909Z,21.09
2018-06-04T04:29:16.456Z,21.24
2018-06-04T04:29:56.998Z,21.15
2018-06-04T04:30:37.572Z,21.18
2018-06-04T04:31:18.154Z,21.18
2018-06-04T04:31:58.728Z,21.17
2018-06-04T04:32:39.310Z,21.2
2018-06-04T04:33:19.875Z,21.25
2018-06-04T04:34:00.423Z,21.24
2018-06-04T04:34:40.972Z,21.29
2018-06-04T04:35:21.554Z,21.33
2018-06-04T04:36:02.130Z,21.3
2018-06-04T04:36:42.712Z,21.4
2018-06-04T04:37:23.306Z,21.32
2018-06-04T04:38:03.903Z,21.39
2018-06-04T04:38:44.477Z,21.32
2018-06-04T04:39:25.090Z,21.39
2018-06-04T04:40:05.665Z,21.46
2018-06-04T04:40:46.230Z,21.4
2018-06-04T04:41:26.784Z,21.46
2018-06-04T04:42:07.343Z,21.5
2018-06-04T04:42:47.909Z,21.51
2018-06-04T04:43:28.474Z,21.58
2018-06-04T04:44:09.058Z,21.66
2018-06-04T04:44:49.629Z,21.58
2018-06-04T04:45:30.212Z,21.52
2018-06-04T04:46:10.743Z,21.61
2018-06-04T04:46:51.297Z,21.57
2018-06-04T04:47:31.849Z,21.57
2018-06-04T04:48:12.400Z,21.58
2018-06-04T04:48:53.003Z,21.62
2018-06-04T04:49:33.588Z,21.54
2018-06-04T04:50:14.182Z,21.66
2018-06-04T04:50:54.731Z,21.57
2018-06-04T04:51:35.297Z,21.55
2018-06-04T04:52:15.883Z,21.6
2018-06-04T04:52:56.448Z,21.6
2018-06-04T04:53:37.017Z,21.7
2018-06-04T04:54:17.601Z,21.73
2018-06-04T04:54:58.127Z,21.6
2018-06-04T04:55:38.671Z,21.57
2018-06-04T04:56:19.253Z,21.72
2018-06-04T04:56:59.843Z,21.7
2018-06-04T04:57:40.396Z,21.79
2018-06-04T04:58:20.949Z,21.72
2018-06-04T04:59:01.502Z,21.8
2018-06-04T04:59:42.152Z,21.77
2018-06-04T05:00:22.610Z,21.82
2018-06-04T05:01:03.168Z,21.83
2018-06-04T05:01:43.730Z,21.8
2018-06-04T05:02:24.274Z,21.85
2018-06-04T05:03:04.894Z,21.92
2018-06-04T05:03:45.538Z,21.92
2018-06-04T05:04:26.142Z,21.98
2018-06-04T05:05:06.774Z,21.98
2018-06-04T05:05:47.323Z,21.99
2018-06-04T05:06:27.880Z,22.06
2018-06-04T05:07:08.460Z,22
2018-06-04T05:07:49.037Z,22.07
2018-06-04T05:08:29.634Z,22.04
2018-06-04T05:09:10.227Z,22.1
2018-06-04T05:09:50.852Z,22
2018-06-04T05:10:31.422Z,22.13
2018-06-04T05:11:11.996Z,22.06
2018-06-04T05:11:52.573Z,22.13
2018-06-04T05:12:33.140Z,22.14
2018-06-04T05:13:13.704Z,22.11
2018-06-04T05:13:54.277Z,22.18
2018-06-04T05:14:34.850Z,22.23
2018-06-04T05:15:15.412Z,22.2
2018-06-04T05:15:55.993Z,22.32
2018-06-04T05:16:36.559Z,22.23
2018-06-04T05:17:17.129Z,22.26
2018-06-04T05:17:57.721Z,22.3
2018-06-04T05:18:38.284Z,22.28
2018-06-04T05:19:18.864Z,22.33
2018-06-04T05:19:59.467Z,22.35
2018-06-04T05:20:40.061Z,22.32
2018-06-04T05:21:20.642Z,22.43
2018-06-04T05:22:01.214Z,22.44
2018-06-04T05:22:41.782Z,22.44
2018-06-04T05:23:22.360Z,22.45
2018-06-04T05:24:02.924Z,22.44
2018-06-04T05:24:43.495Z,22.53
2018-06-04T05:25:24.080Z,22.59
2018-06-04T05:26:04.650Z,22.63
2018-06-04T05:26:45.216Z,22.62
2018-06-04T05:27:25.779Z,22.62
2018-06-04T05:28:06.364Z,22.8
2018-06-04T05:28:46.936Z,22.73
2018-06-04T05:29:27.506Z,22.9
2018-06-04T05:30:08.075Z,22.87
2018-06-04T05:30:48.645Z,22.98
2018-06-04T05:31:29.385Z,23
2018-06-04T05:32:09.975Z,23.05
2018-06-04T05:32:50.553Z,23.1
2018-06-04T05:33:31.124Z,23.15
2018-06-04T05:34:11.694Z,23.2
2018-06-04T05:34:52.261Z,23.32
2018-06-04T05:35:32.839Z,23.32
2018-06-04T05:36:13.395Z,23.4
2018-06-04T05:36:53.973Z,23.36
2018-06-04T05:37:34.540Z,23.34
2018-06-04T05:38:15.102Z,23.44
2018-06-04T05:38:55.687Z,23.43
2018-06-04T05:39:36.244Z,23.47
2018-06-04T05:40:16.821Z,23.55
2018-06-04T05:40:57.386Z,23.59
2018-06-04T05:41:37.943Z,23.71
2018-06-04T05:42:18.528Z,23.74
2018-06-04T05:42:59.093Z,23.74
2018-06-04T05:43:39.680Z,23.84
2018-06-04T05:44:20.275Z,23.88
2018-06-04T05:45:00.903Z,23.93
2018-06-04T05:45:41.449Z,24.02
2018-06-04T05:46:22.005Z,24.1
2018-06-04T05:47:02.581Z,24.14
2018-06-04T05:47:43.149Z,24.13
2018-06-04T05:48:23.734Z,24.21
2018-06-04T05:49:04.302Z,24.18
2018-06-04T05:49:44.853Z,24.2
2018-06-04T05:50:25.544Z,24.2
2018-06-04T05:51:06.120Z,24.29
2018-06-04T05:51:46.691Z,24.29
2018-06-04T05:52:27.240Z,24.42
2018-06-04T05:53:07.815Z,24.48
2018-06-04T05:53:48.368Z,24.47
2018-06-04T05:54:28.939Z,24.58
2018-06-04T05:55:09.515Z,24.63
2018-06-04T05:55:50.093Z,24.65
2018-06-04T05:56:30.659Z,24.6
2018-06-04T05:57:11.238Z,24.63
2018-06-04T05:57:51.830Z,24.65
2018-06-04T05:58:32.397Z,24.74
2018-06-04T05:59:12.977Z,24.91
2018-06-04T05:59:53.540Z,24.8
2018-06-04T06:00:34.091Z,24.88
2018-06-04T06:01:14.662Z,24.91
2018-06-04T06:01:55.232Z,24.88
2018-06-04T06:02:35.809Z,24.78
2018-06-04T06:03:16.381Z,24.95
2018-06-04T06:03:56.952Z,24.98
2018-06-04T06:04:37.528Z,24.91
2018-06-04T06:05:18.158Z,24.99
2018-06-04T06:05:58.717Z,24.96
2018-06-04T06:06:39.296Z,25.08
2018-06-04T06:07:19.875Z,25.11
2018-06-04T06:08:00.527Z,25.04
2018-06-04T06:08:41.092Z,25.18
2018-06-04T06:09:21.672Z,25.17
2018-06-04T06:10:02.248Z,25.21
2018-06-04T06:10:42.874Z,25.11
2018-06-04T06:11:23.475Z,25.26
2018-06-04T06:12:04.040Z,25.28
2018-06-04T06:12:44.601Z,25.28
2018-06-04T06:13:25.572Z,25.29
2018-06-04T06:14:06.187Z,25.36
2018-06-04T06:14:46.764Z,25.41
2018-06-04T06:15:27.328Z,25.36
2018-06-04T06:16:07.897Z,25.43
2018-06-04T06:16:48.476Z,25.43
2018-06-04T06:17:29.021Z,25.44
2018-06-04T06:18:09.600Z,25.43
2018-06-04T06:18:50.182Z,25.54
2018-06-04T06:19:30.780Z,25.58
2018-06-04T06:20:11.362Z,25.51
2018-06-04T06:20:51.933Z,25.62
2018-06-04T06:21:32.495Z,25.53
2018-06-04T06:22:13.087Z,25.53
2018-06-04T06:22:53.710Z,25.58
2018-06-04T06:23:34.320Z,25.58
2018-06-04T06:24:14.881Z,25.63
2018-06-04T06:24:55.444Z,25.68
2018-06-04T06:25:36.001Z,25.7
2018-06-04T06:26:16.537Z,25.68
2018-06-04T06:26:57.106Z,25.78
2018-06-04T06:27:37.662Z,25.84
2018-06-04T06:28:18.275Z,25.85
2018-06-04T06:28:58.837Z,25.87
2018-06-04T06:29:39.390Z,26
2018-06-04T06:30:19.958Z,25.98
2018-06-04T06:31:00.549Z,26.09
2018-06-04T06:31:41.148Z,26.03
2018-06-04T06:32:21.749Z,25.98
2018-06-04T06:33:02.337Z,26.07
2018-06-04T06:33:42.912Z,26.05
2018-06-04T06:34:23.490Z,25.98
2018-06-04T06:35:04.046Z,25.95
2018-06-04T06:35:44.665Z,25.87
2018-06-04T06:36:25.210Z,25.88
2018-06-04T06:37:05.776Z,25.87
2018-06-04T06:37:46.382Z,25.87
2018-06-04T06:38:27.016Z,25.84
2018-06-04T06:39:07.605Z,25.72
2018-06-04T06:39:48.164Z,25.7
2018-06-04T06:40:28.733Z,25.83
2018-06-04T06:41:09.315Z,25.81
2018-06-04T06:41:49.904Z,25.81
2018-06-04T06:42:30.465Z,25.93
2018-06-04T06:43:11.029Z,25.88
2018-06-04T06:43:51.604Z,25.95
2018-06-04T06:44:32.193Z,25.96
2018-06-04T06:45:12.784Z,26.02
2018-06-04T06:45:53.419Z,26.05
2018-06-04T06:46:33.974Z,26.09
2018-06-04T06:47:14.553Z,26.03
2018-06-04T06:47:55.117Z,26.07
2018-06-04T06:48:35.927Z,26.07
2018-06-04T06:49:16.496Z,26.07
2018-06-04T06:49:57.088Z,26.07
2018-06-04T06:50:37.673Z,26.1
2018-06-04T06:51:18.278Z,26.25
2018-06-04T06:51:58.850Z,26.19
2018-06-04T06:52:39.436Z,26.22
2018-06-04T06:53:20.002Z,26.13
2018-06-04T06:54:00.603Z,26.18
2018-06-04T06:54:41.226Z,26.15
2018-06-04T06:55:21.804Z,26.25
2018-06-04T06:56:02.394Z,26.23
2018-06-04T06:56:42.948Z,26.26
2018-06-04T06:57:23.523Z,26.26
2018-06-04T06:58:04.082Z,26.26
2018-06-04T06:58:44.668Z,26.4
2018-06-04T06:59:25.290Z,26.36
2018-06-04T07:00:05.833Z,26.38
2018-06-04T07:00:46.408Z,26.47
2018-06-04T07:01:26.985Z,26.51
2018-06-04T07:02:07.565Z,26.51
2018-06-04T07:02:48.138Z,26.44
2018-06-04T07:03:28.718Z,26.51
2018-06-04T07:04:09.545Z,26.52
2018-06-04T07:04:50.137Z,26.56
2018-06-04T07:05:30.689Z,26.51
2018-06-04T07:06:11.263Z,26.52
2018-06-04T07:06:51.821Z,26.58
2018-06-04T07:07:32.446Z,26.52
2018-06-04T07:08:13.013Z,26.52
2018-06-04T07:08:53.581Z,26.53
2018-06-04T07:09:34.146Z,26.55
2018-06-04T07:10:14.728Z,26.59
2018-06-04T07:10:55.318Z,26.52
2018-06-04T07:11:35.893Z,26.55
2018-06-04T07:12:16.490Z,26.58
2018-06-04T07:12:57.076Z,26.53
2018-06-04T07:13:37.636Z,26.58
2018-06-04T07:14:18.224Z,26.47
2018-06-04T07:14:58.767Z,26.6
2018-06-04T07:15:39.351Z,26.59
2018-06-04T07:16:19.927Z,26.63
2018-06-04T07:17:00.512Z,26.62
2018-06-04T07:17:41.091Z,26.6
2018-06-04T07:18:21.675Z,26.55
2018-06-04T07:19:02.232Z,26.48
2018-06-04T07:19:42.777Z,26.4
2018-06-04T07:20:23.348Z,26.28
2018-06-04T07:21:03.898Z,26.25
2018-06-04T07:21:44.453Z,26.29
2018-06-04T07:22:25.019Z,26.26
2018-06-04T07:23:05.606Z,26.33
2018-06-04T07:23:46.180Z,26.26
2018-06-04T07:24:26.739Z,26.4
2018-06-04T07:25:07.325Z,26.4
2018-06-04T07:25:47.906Z,26.44
2018-06-04T07:26:28.481Z,26.48
2018-06-04T07:27:09.049Z,26.48
2018-06-04T07:27:49.610Z,26.51
2018-06-04T07:28:30.202Z,26.62
2018-06-04T07:29:10.813Z,26.66
2018-06-04T07:29:51.405Z,26.71
2018-06-04T07:30:31.964Z,26.75
2018-06-04T07:31:12.554Z,26.7
2018-06-04T07:31:53.123Z,26.75
2018-06-04T07:32:33.669Z,26.83
2018-06-04T07:33:14.243Z,26.83
2018-06-04T07:33:54.935Z,26.81
2018-06-04T07:34:35.534Z,26.83
2018-06-04T07:35:16.092Z,26.84
2018-06-04T07:35:56.657Z,26.89
2018-06-04T07:36:37.232Z,26.96
2018-06-04T07:37:17.803Z,26.89
2018-06-04T07:37:58.398Z,26.97
2018-06-04T07:38:38.959Z,26.95
2018-06-04T07:39:19.541Z,27.07
2018-06-04T07:40:00.107Z,27.03
2018-06-04T07:40:40.681Z,27.03
2018-06-04T07:41:21.297Z,27.08
2018-06-04T07:42:01.932Z,27.07
2018-06-04T07:42:42.537Z,27.15
2018-06-04T07:43:23.138Z,27.17
2018-06-04T07:44:03.716Z,27.25
2018-06-04T07:44:44.277Z,27.26
2018-06-04T07:45:25.024Z,27.26
2018-06-04T07:46:05.591Z,27.25
2018-06-04T07:46:46.165Z,27.2
2018-06-04T07:47:26.736Z,27.25
2018-06-04T07:48:07.331Z,27.26
2018-06-04T07:48:47.894Z,27.27
2018-06-04T07:49:28.477Z,27.22
2018-06-04T07:50:09.033Z,27.12
2018-06-04T07:50:49.649Z,27.1
2018-06-04T07:51:30.230Z,27.15
2018-06-04T07:52:10.820Z,27.12
2018-06-04T07:52:51.386Z,27
2018-06-04T07:53:31.963Z,27.03
2018-06-04T07:54:12.532Z,27.02
2018-06-04T07:54:53.112Z,27.02
2018-06-04T07:55:33.673Z,27.14
2018-06-04T07:56:14.246Z,27.17
2018-06-04T07:56:54.803Z,27.15
2018-06-04T07:57:35.394Z,27.15
2018-06-04T07:58:15.974Z,27.12
2018-06-04T07:58:56.566Z,27.15
2018-06-04T07:59:37.132Z,27.18
2018-06-04T08:00:17.715Z,27.17
2018-06-04T08:00:58.312Z,27.14
2018-06-04T08:01:38.975Z,27.07
2018-06-04T08:02:19.584Z,26.95
2018-06-04T08:03:00.173Z,26.84
2018-06-04T08:03:40.751Z,26.77
2018-06-04T08:04:21.357Z,26.74
2018-06-04T08:05:01.923Z,26.77
2018-06-04T08:05:42.512Z,26.71
2018-06-04T08:06:23.112Z,26.7
2018-06-04T08:07:03.672Z,26.65
2018-06-04T08:07:44.277Z,26.75
2018-06-04T08:08:24.854Z,26.75
2018-06-04T08:09:05.445Z,26.8
2018-06-04T08:09:46.017Z,26.81
2018-06-04T08:10:26.586Z,26.85
2018-06-04T08:11:07.206Z,26.92
2018-06-04T08:11:47.745Z,26.95
2018-06-04T08:12:28.310Z,26.93
2018-06-04T08:13:08.967Z,27.08
2018-06-04T08:13:50.002Z,27.08
2018-06-04T08:14:30.590Z,26.9
2018-06-04T08:15:11.331Z,26.93
2018-06-04T08:15:52.151Z,26.93
2018-06-04T08:16:32.973Z,27.05
2018-06-04T08:17:13.810Z,27.07
2018-06-04T08:17:54.683Z,27.05
2018-06-04T08:18:35.399Z,27.1
2018-06-04T08:19:15.954Z,27.12
2018-06-04T08:19:56.668Z,27.12
2018-06-04T08:20:37.397Z,27.17
2018-06-04T08:21:18.154Z,27.22
2018-06-04T08:21:59.201Z,27.26
2018-06-04T08:22:39.799Z,27.2
2018-06-04T08:23:21.105Z,27.27
2018-06-04T08:24:01.622Z,27.33
2018-06-04T08:24:43.168Z,27.36
2018-06-04T08:25:23.772Z,27.32
2018-06-04T08:26:04.360Z,27.29
2018-06-04T08:26:44.972Z,27.29
2018-06-04T08:27:25.540Z,27.35
2018-06-04T08:28:06.117Z,27.32
2018-06-04T08:28:46.725Z,27.27
2018-06-04T08:29:27.271Z,27.18
2018-06-04T08:30:07.871Z,27.21
2018-06-04T08:30:48.452Z,27.14
2018-06-04T08:31:29.023Z,27.02
2018-06-04T08:32:09.614Z,26.97
2018-06-04T08:32:50.205Z,26.96
2018-06-04T08:33:30.801Z,26.83
2018-06-04T08:34:11.352Z,26.68
2018-06-04T08:34:51.936Z,26.73
2018-06-04T08:35:32.509Z,26.71
2018-06-04T08:36:13.093Z,26.7
2018-06-04T08:36:53.654Z,26.68
2018-06-04T08:37:34.210Z,26.65
2018-06-04T08:38:14.773Z,26.73
2018-06-04T08:38:55.316Z,26.73
2018-06-04T08:39:35.868Z,26.66
2018-06-04T08:40:16.427Z,26.7
2018-06-04T08:40:56.974Z,26.73
2018-06-04T08:41:37.568Z,26.75
2018-06-04T08:42:18.143Z,26.74
2018-06-04T08:42:58.715Z,26.78
2018-06-04T08:43:39.290Z,26.8
2018-06-04T08:44:19.959Z,26.74
2018-06-04T08:45:00.553Z,26.68